Time;durP1;ratioP1;P1;durP2;ratioP2;P2;SDS_P1;SDS_P2;PMS_P1;PMS_P2;Temp;Humidity;BMP_temperature;BMP_pressure;BME280_temperature;BME280_humidity;BME280_pressure;Samples;Min_cycle;Max_cycle;Signal;HPM_P1;HPM_P2
2023/08/30 00:00:45;;;;;;;;;;;13.80;99.90;;;;;;5046080;28;20122;-90
2023/08/30 00:03:28;;;;;;;;;;;13.80;99.90;;;;;;5059757;28;19929;-90
2023/08/30 00:05:55;;;;;;;;;;;13.80;99.90;;;;;;5065102;28;20227;-90
2023/08/30 00:08:22;;;;;;;;;;;13.80;99.90;;;;;;5064503;28;19920;-91
2023/08/30 00:10:49;;;;;;;;;;;13.80;99.90;;;;;;5064736;28;20227;-90
2023/08/30 00:13:18;;;;;;;;;;;13.70;99.90;;;;;;5046441;28;22038;-89
2023/08/30 00:15:44;;;;;;;;;;;13.80;99.90;;;;;;5064900;28;19933;-90
2023/08/30 00:18:11;;;;;;;;;;;13.80;99.90;;;;;;5064743;28;19980;-91
2023/08/30 00:20:39;;;;;;;;;;;13.80;99.90;;;;;;5064979;28;20000;-90
2023/08/30 00:26:09;;;;;;;;;;;13.80;99.90;;;;;;5065030;28;20222;-91
2023/08/30 00:28:35;;;;;;;;;;;13.80;99.90;;;;;;5064317;28;19921;-91
2023/08/30 00:31:02;;;;;;;;;;;13.80;99.90;;;;;;5064765;28;20282;-91
2023/08/30 00:33:29;;;;;;;;;;;13.80;99.90;;;;;;5064601;28;19956;-91
2023/08/30 00:35:58;;;;;;;;;;;13.80;99.90;;;;;;5064578;28;19927;-91
2023/08/30 00:38:24;;;;;;;;;;;13.80;99.90;;;;;;5060016;28;20228;-92
2023/08/30 00:40:52;;;;;;;;;;;13.90;99.90;;;;;;5060545;28;20212;-91
2023/08/30 00:43:19;;;;;;;;;;;13.90;99.90;;;;;;5065001;28;20183;-91
2023/08/30 00:45:46;;;;;;;;;;;13.90;99.90;;;;;;5064727;28;19992;-90
2023/08/30 00:48:12;;;;;;;;;;;13.90;99.90;;;;;;5046798;28;19928;-91
2023/08/30 00:50:40;;;;;;;;;;;13.90;99.90;;;;;;5056876;28;19951;-91
2023/08/30 00:53:08;;;;;;;;;;;13.90;99.90;;;;;;5064596;28;19956;-91
2023/08/30 00:55:35;;;;;;;;;;;13.90;99.90;;;;;;5064383;28;19956;-89
2023/08/30 00:58:02;;;;;;;;;;;13.90;99.90;;;;;;5064131;28;19948;-90
2023/08/30 01:00:29;;;;;;;;;;;13.90;99.90;;;;;;5064929;28;19986;-90
2023/08/30 01:02:56;;;;;;;;;;;13.80;99.90;;;;;;5067685;28;19996;-90
2023/08/30 01:05:24;;;;;;;;;;;13.90;99.90;;;;;;5051597;28;19992;-91
2023/08/30 01:07:51;;;;;;;;;;;13.80;99.90;;;;;;5063928;28;19921;-90
2023/08/30 01:10:19;;;;;;;;;;;13.90;99.90;;;;;;5064100;28;19940;-91
2023/08/30 01:12:48;;;;;;;;;;;13.80;99.90;;;;;;5063961;28;19921;-91
2023/08/30 01:15:17;;;;;;;;;;;13.90;99.90;;;;;;5057075;28;20012;-89
2023/08/30 01:17:44;;;;;;;;;;;13.80;99.90;;;;;;5043420;28;19941;-90
2023/08/30 01:20:13;;;;;;;;;;;13.80;99.90;;;;;;5045756;28;19928;-89
2023/08/30 01:22:54;;;;;;;;;;;13.80;99.90;;;;;;5061517;28;19928;-90
2023/08/30 01:25:32;;;;;;;;;;;13.70;99.90;;;;;;5063928;28;20169;-89
2023/08/30 01:28:01;;;;;;;;;;;13.70;99.90;;;;;;5063437;28;19921;-90
2023/08/30 01:30:28;;;;;;;;;;;13.70;99.90;;;;;;5063976;28;19925;-90
2023/08/30 01:32:56;;;;;;;;;;;13.70;99.90;;;;;;5064084;28;20164;-90
2023/08/30 01:35:23;;;;;;;;;;;13.70;99.90;;;;;;5060158;28;20263;-90
2023/08/30 01:37:51;;;;;;;;;;;13.70;99.90;;;;;;5063468;28;19991;-90
2023/08/30 01:40:18;;;;;;;;;;;13.70;99.90;;;;;;5073936;28;19972;-89
2023/08/30 01:42:45;;;;;;;;;;;13.70;99.90;;;;;;5070832;28;19921;-89
2023/08/30 01:45:14;;;;;;;;;;;13.70;99.90;;;;;;5065333;28;19925;-89
2023/08/30 01:47:43;;;;;;;;;;;13.70;99.90;;;;;;5065667;28;20164;-89
2023/08/30 01:50:10;;;;;;;;;;;13.80;99.90;;;;;;5065199;28;19944;-90
2023/08/30 01:52:37;;;;;;;;;;;13.80;99.90;;;;;;5064930;28;19927;-89
2023/08/30 01:55:05;;;;;;;;;;;13.80;99.90;;;;;;5065004;28;19921;-89
2023/08/30 01:57:32;;;;;;;;;;;13.80;99.90;;;;;;5064713;28;19948;-90
2023/08/30 01:59:59;;;;;;;;;;;13.80;99.90;;;;;;5065385;28;19947;-89
2023/08/30 02:02:29;;;;;;;;;;;13.80;99.90;;;;;;5064848;28;19980;-90
2023/08/30 02:04:55;;;;;;;;;;;13.80;99.90;;;;;;5060601;28;19929;-90
2023/08/30 02:07:24;;;;;;;;;;;13.80;99.90;;;;;;5064203;28;19931;-89
2023/08/30 02:09:54;;;;;;;;;;;14.00;99.90;;;;;;5064994;28;19921;-90
2023/08/30 02:12:24;;;;;;;;;;;13.90;99.90;;;;;;5064957;28;19921;-90
2023/08/30 02:14:51;;;;;;;;;;;13.80;99.90;;;;;;5064992;28;19927;-90
2023/08/30 02:17:18;;;;;;;;;;;13.90;99.90;;;;;;5064296;28;20234;-89
2023/08/30 02:19:47;;;;;;;;;;;13.80;99.90;;;;;;5064716;28;19949;-89
2023/08/30 02:22:29;;;;;;;;;;;13.90;99.90;;;;;;5062176;28;19992;-89
2023/08/30 02:24:55;;;;;;;;;;;13.90;99.90;;;;;;5065864;28;20123;-90
2023/08/30 02:27:23;;;;;;;;;;;13.90;99.90;;;;;;5067621;28;20228;-90
2023/08/30 02:29:50;;;;;;;;;;;13.80;99.90;;;;;;5067926;28;19947;-91
2023/08/30 02:32:20;;;;;;;;;;;13.90;99.90;;;;;;5068135;28;19951;-90
2023/08/30 02:34:50;;;;;;;;;;;14.00;99.90;;;;;;5067434;28;20134;-90
2023/08/30 02:37:24;;;;;;;;;;;13.80;99.90;;;;;;5066279;28;19980;-90
2023/08/30 02:39:50;;;;;;;;;;;13.80;99.90;;;;;;5067261;28;20151;-89
2023/08/30 02:42:17;;;;;;;;;;;13.80;99.90;;;;;;5067498;28;19992;-90
2023/08/30 02:44:44;;;;;;;;;;;13.80;99.90;;;;;;5065568;28;19921;-90
2023/08/30 02:47:10;;;;;;;;;;;13.90;99.90;;;;;;5066384;28;19921;-90
2023/08/30 02:49:37;;;;;;;;;;;13.80;99.90;;;;;;5066492;28;20271;-90
2023/08/30 02:52:06;;;;;;;;;;;13.80;99.90;;;;;;5066947;28;20009;-91
2023/08/30 02:54:32;;;;;;;;;;;13.80;99.90;;;;;;5066952;28;19988;-90
2023/08/30 02:56:59;;;;;;;;;;;13.80;99.90;;;;;;5066912;28;20101;-90
2023/08/30 02:59:26;;;;;;;;;;;13.90;99.90;;;;;;5066292;28;20231;-91
2023/08/30 03:01:52;;;;;;;;;;;13.80;99.90;;;;;;5066852;28;19984;-90
2023/08/30 03:04:19;;;;;;;;;;;13.70;99.90;;;;;;5066804;28;20220;-90
2023/08/30 03:06:46;;;;;;;;;;;13.80;99.90;;;;;;5066362;28;20243;-91
2023/08/30 03:09:14;;;;;;;;;;;13.80;99.90;;;;;;5065869;28;19948;-90
2023/08/30 03:11:41;;;;;;;;;;;13.80;99.90;;;;;;5067100;28;19980;-91
2023/08/30 03:14:07;;;;;;;;;;;13.70;99.90;;;;;;5066348;28;19984;-91
2023/08/30 03:16:34;;;;;;;;;;;13.60;99.90;;;;;;5065960;28;19983;-90
2023/08/30 03:19:01;;;;;;;;;;;13.70;99.90;;;;;;5065571;28;19980;-90
2023/08/30 03:21:27;;;;;;;;;;;13.60;99.90;;;;;;5064486;28;19992;-90
2023/08/30 03:23:54;;;;;;;;;;;13.70;99.90;;;;;;5061143;28;20116;-92
2023/08/30 03:26:22;;;;;;;;;;;13.70;99.90;;;;;;5065716;28;19988;-90
2023/08/30 03:28:49;;;;;;;;;;;13.60;99.90;;;;;;5065630;28;19921;-90
2023/08/30 03:31:17;;;;;;;;;;;13.60;99.90;;;;;;5065719;28;20004;-90
2023/08/30 03:33:44;;;;;;;;;;;13.60;99.90;;;;;;5065653;28;19941;-90
2023/08/30 03:36:11;;;;;;;;;;;13.50;99.90;;;;;;5064880;28;19944;-90
2023/08/30 03:38:38;;;;;;;;;;;13.50;99.90;;;;;;5065100;28;19920;-91
2023/08/30 03:41:07;;;;;;;;;;;13.50;99.90;;;;;;5065844;28;20255;-90
2023/08/30 03:43:35;;;;;;;;;;;13.50;99.90;;;;;;5066092;28;19988;-90
2023/08/30 03:46:02;;;;;;;;;;;13.50;99.90;;;;;;5065553;28;19921;-90
2023/08/30 03:48:29;;;;;;;;;;;13.50;99.90;;;;;;5076571;28;19909;-89
2023/08/30 03:56:54;;;;;;;;;;;13.60;99.90;;;;;;4955078;28;19922;-89
2023/08/30 03:59:23;;;;;;;;;;;13.50;99.90;;;;;;5049012;28;19988;-90
2023/08/30 04:01:50;;;;;;;;;;;13.60;99.90;;;;;;5066611;28;19992;-90
2023/08/30 04:04:17;;;;;;;;;;;13.60;99.90;;;;;;5066218;28;19929;-89
2023/08/30 04:07:04;;;;;;;;;;;13.50;99.90;;;;;;5065574;28;19983;-90
2023/08/30 04:09:33;;;;;;;;;;;13.50;99.90;;;;;;5060259;28;20277;-89
2023/08/30 04:12:00;;;;;;;;;;;13.50;99.90;;;;;;5067009;28;19920;-91
2023/08/30 04:14:28;;;;;;;;;;;13.60;99.90;;;;;;5070479;28;20093;-90
2023/08/30 04:16:58;;;;;;;;;;;13.50;99.90;;;;;;5065754;28;19988;-91
2023/08/30 04:19:47;;;;;;;;;;;13.50;99.90;;;;;;5063175;28;19921;-91
2023/08/30 04:22:14;;;;;;;;;;;13.50;99.90;;;;;;5065167;28;19924;-90
2023/08/30 04:24:40;;;;;;;;;;;13.40;99.90;;;;;;5065179;28;20199;-90
2023/08/30 04:30:13;;;;;;;;;;;13.40;99.90;;;;;;5065472;28;20187;-91
2023/08/30 04:32:39;;;;;;;;;;;13.40;99.90;;;;;;5074307;28;19983;-90
2023/08/30 04:35:07;;;;;;;;;;;13.40;99.90;;;;;;5073754;28;19920;-91
2023/08/30 04:37:33;;;;;;;;;;;13.40;99.90;;;;;;5072566;28;19980;-90
2023/08/30 04:40:00;;;;;;;;;;;13.40;99.90;;;;;;5070328;28;19947;-90
2023/08/30 04:42:27;;;;;;;;;;;13.30;99.90;;;;;;5073788;28;19921;-90
2023/08/30 04:44:55;;;;;;;;;;;13.30;99.90;;;;;;5072696;28;19943;-91
2023/08/30 04:50:35;;;;;;;;;;;13.30;99.90;;;;;;5022830;28;20179;-90
2023/08/30 04:53:02;;;;;;;;;;;13.30;99.90;;;;;;5033139;28;19927;-90
2023/08/30 04:55:29;;;;;;;;;;;13.40;99.90;;;;;;5065130;28;19992;-90
2023/08/30 04:57:56;;;;;;;;;;;13.30;99.90;;;;;;5064312;28;19979;-90
2023/08/30 05:00:25;;;;;;;;;;;13.30;99.90;;;;;;5065440;28;19921;-89
2023/08/30 05:02:55;;;;;;;;;;;13.30;99.90;;;;;;5064161;28;19948;-89
2023/08/30 05:05:24;;;;;;;;;;;13.30;99.90;;;;;;5064062;28;19921;-89
2023/08/30 05:07:53;;;;;;;;;;;13.30;99.90;;;;;;5063855;28;19944;-88
2023/08/30 05:10:19;;;;;;;;;;;13.30;99.90;;;;;;5064578;28;19945;-90
2023/08/30 05:12:51;;;;;;;;;;;13.30;99.90;;;;;;5061112;28;20156;-89
2023/08/30 05:15:18;;;;;;;;;;;13.30;99.90;;;;;;5064207;28;19931;-90
2023/08/30 05:17:45;;;;;;;;;;;13.30;99.90;;;;;;5063863;28;19987;-90
2023/08/30 05:20:11;;;;;;;;;;;13.40;99.90;;;;;;5053218;28;19927;-90
2023/08/30 05:22:38;;;;;;;;;;;13.30;99.90;;;;;;5062403;28;19948;-89
2023/08/30 05:25:12;;;;;;;;;;;13.30;99.90;;;;;;5064783;28;19921;-90
2023/08/30 05:27:53;;;;;;;;;;;13.30;99.90;;;;;;5064462;28;19984;-89
2023/08/30 05:30:19;;;;;;;;;;;13.40;99.90;;;;;;5058807;28;19929;-89
2023/08/30 05:32:46;;;;;;;;;;;13.40;99.90;;;;;;5064726;28;20004;-88
2023/08/30 05:35:16;;;;;;;;;;;13.40;99.90;;;;;;5065727;28;19984;-90
2023/08/30 05:37:45;;;;;;;;;;;13.40;99.90;;;;;;5065622;28;19936;-90
2023/08/30 05:40:15;;;;;;;;;;;13.40;99.90;;;;;;5068042;28;20123;-89
2023/08/30 05:42:41;;;;;;;;;;;13.40;99.90;;;;;;5048401;28;19929;-90
2023/08/30 05:45:15;;;;;;;;;;;13.40;99.90;;;;;;5067271;28;19959;-90
2023/08/30 05:48:06;;;;;;;;;;;13.50;99.90;;;;;;5070403;28;19929;-90
2023/08/30 05:50:37;;;;;;;;;;;13.50;99.90;;;;;;5063327;28;19920;-90
2023/08/30 05:53:05;;;;;;;;;;;13.50;99.90;;;;;;5064027;28;20007;-89
2023/08/30 05:55:39;;;;;;;;;;;13.50;99.90;;;;;;5064024;28;19921;-89
2023/08/30 05:58:06;;;;;;;;;;;13.50;99.90;;;;;;5064174;28;20216;-91
2023/08/30 06:00:35;;;;;;;;;;;13.60;99.90;;;;;;5066829;28;19920;-89
2023/08/30 06:03:11;;;;;;;;;;;13.60;99.90;;;;;;5065957;28;20124;-90
2023/08/30 06:05:38;;;;;;;;;;;13.60;99.90;;;;;;5062187;28;19920;-89
2023/08/30 06:08:07;;;;;;;;;;;13.60;99.90;;;;;;5068718;28;19948;-90
2023/08/30 06:10:36;;;;;;;;;;;13.70;99.90;;;;;;5069678;28;19951;-90
2023/08/30 06:13:03;;;;;;;;;;;13.70;99.90;;;;;;5071347;28;19924;-91
2023/08/30 06:15:30;;;;;;;;;;;13.70;99.90;;;;;;5070455;28;19959;-91
2023/08/30 06:17:56;;;;;;;;;;;13.80;99.90;;;;;;5070006;28;19953;-91
2023/08/30 06:20:23;;;;;;;;;;;13.80;99.90;;;;;;5070022;22;20231;-74
2023/08/30 06:22:49;;;;;;;;;;;13.80;99.90;;;;;;5046949;28;19921;-74
2023/08/30 06:25:16;;;;;;;;;;;13.90;99.90;;;;;;5046854;28;19927;-73
2023/08/30 06:27:55;;;;;;;;;;;13.90;99.90;;;;;;5046922;28;19988;-74
2023/08/30 06:30:22;;;;;;;;;;;14.00;99.90;;;;;;5046830;28;19921;-74
2023/08/30 06:32:49;;;;;;;;;;;14.00;99.90;;;;;;5046529;28;19944;-74
2023/08/30 06:35:16;;;;;;;;;;;14.10;99.90;;;;;;5046659;28;19960;-74
2023/08/30 06:37:42;;;;;;;;;;;14.10;99.90;;;;;;5045896;28;19928;-74
2023/08/30 06:40:10;;;;;;;;;;;14.10;99.90;;;;;;5046462;28;19921;-74
2023/08/30 06:42:38;;;;;;;;;;;14.10;99.90;;;;;;5046249;28;19928;-74
2023/08/30 06:45:07;;;;;;;;;;;14.10;99.90;;;;;;5046571;28;19921;-74
2023/08/30 06:47:33;;;;;;;;;;;14.10;99.90;;;;;;5046047;28;20267;-74
2023/08/30 06:50:01;;;;;;;;;;;14.20;99.90;;;;;;5046307;28;20152;-74
2023/08/30 06:52:28;;;;;;;;;;;14.20;99.90;;;;;;5046472;28;19987;-74
2023/08/30 06:54:57;;;;;;;;;;;14.20;99.90;;;;;;5046035;28;19951;-74
2023/08/30 06:57:24;;;;;;;;;;;14.20;99.90;;;;;;5045858;28;20116;-74
2023/08/30 06:59:50;;;;;;;;;;;14.30;99.90;;;;;;5046027;28;19936;-74
2023/08/30 07:02:18;;;;;;;;;;;14.30;99.90;;;;;;5045851;28;19952;-74
2023/08/30 07:04:45;;;;;;;;;;;14.30;99.90;;;;;;5046123;28;19928;-75
2023/08/30 07:07:12;;;;;;;;;;;14.30;99.90;;;;;;5045921;28;19960;-74
2023/08/30 07:09:39;;;;;;;;;;;14.30;99.90;;;;;;5045812;28;19921;-74
2023/08/30 07:12:06;;;;;;;;;;;14.30;99.90;;;;;;5044871;28;19992;-74
2023/08/30 07:14:33;;;;;;;;;;;14.30;99.90;;;;;;5045997;28;19928;-74
2023/08/30 07:17:00;;;;;;;;;;;14.30;99.90;;;;;;5045525;28;19996;-74
2023/08/30 07:19:28;;;;;;;;;;;14.30;99.90;;;;;;5044508;28;19925;-74
2023/08/30 07:21:54;;;;;;;;;;;14.40;99.90;;;;;;5042128;28;19956;-74
2023/08/30 07:24:22;;;;;;;;;;;14.40;99.90;;;;;;5045677;28;19992;-74
2023/08/30 07:26:49;;;;;;;;;;;14.40;99.90;;;;;;5045918;28;19921;-74
2023/08/30 07:29:15;;;;;;;;;;;14.40;99.90;;;;;;5045581;28;20218;-74
2023/08/30 07:31:42;;;;;;;;;;;14.50;99.90;;;;;;5045769;28;19953;-74
2023/08/30 07:34:09;;;;;;;;;;;14.60;99.90;;;;;;5045504;28;20200;-74
2023/08/30 07:36:36;;;;;;;;;;;14.60;99.90;;;;;;5035452;28;19921;-75
2023/08/30 07:39:04;;;;;;;;;;;14.70;99.90;;;;;;5045257;28;19992;-74
2023/08/30 07:41:30;;;;;;;;;;;14.70;99.90;;;;;;5045131;28;19927;-74
2023/08/30 07:43:57;;;;;;;;;;;14.80;99.90;;;;;;5045520;28;19952;-74
2023/08/30 07:46:24;;;;;;;;;;;14.80;99.90;;;;;;5045288;28;19921;-74
2023/08/30 07:48:50;;;;;;;;;;;14.90;99.90;;;;;;5045189;28;19921;-74
2023/08/30 07:51:17;;;;;;;;;;;14.90;99.90;;;;;;5044799;28;19980;-75
2023/08/30 07:53:45;;;;;;;;;;;15.00;99.90;;;;;;5045333;28;19921;-74
2023/08/30 07:56:11;;;;;;;;;;;15.00;99.90;;;;;;5044904;28;19992;-72
2023/08/30 07:58:38;;;;;;;;;;;15.00;99.90;;;;;;5045013;28;19988;-73
2023/08/30 08:01:05;;;;;;;;;;;15.10;99.90;;;;;;5045084;28;19956;-73
2023/08/30 08:03:31;;;;;;;;;;;15.20;99.90;;;;;;5045156;28;19989;-72
2023/08/30 08:05:59;;;;;;;;;;;15.20;99.90;;;;;;5044906;28;19984;-72
2023/08/30 08:08:25;;;;;;;;;;;15.30;99.90;;;;;;5044740;28;19980;-72
2023/08/30 08:11:04;;;;;;;;;;;15.30;99.90;;;;;;5043874;28;20177;-72
2023/08/30 08:13:32;;;;;;;;;;;15.40;99.90;;;;;;5044708;28;19921;-73
2023/08/30 08:15:59;;;;;;;;;;;15.40;99.90;;;;;;5044856;28;19960;-72
2023/08/30 08:18:26;;;;;;;;;;;15.50;99.90;;;;;;5044304;28;19921;-72
2023/08/30 08:20:53;;;;;;;;;;;15.50;99.90;;;;;;5044273;28;19972;-71
2023/08/30 08:23:20;;;;;;;;;;;15.50;99.90;;;;;;5044507;28;19984;-72
2023/08/30 08:25:46;;;;;;;;;;;15.60;99.90;;;;;;5044397;28;19921;-72
2023/08/30 08:28:13;;;;;;;;;;;15.60;99.90;;;;;;5044389;28;19947;-72
2023/08/30 08:30:42;;;;;;;;;;;15.70;99.90;;;;;;5044358;28;19987;-72
2023/08/30 08:33:08;;;;;;;;;;;15.70;99.90;;;;;;5044732;28;20255;-72
2023/08/30 08:35:35;;;;;;;;;;;15.70;99.90;;;;;;5044087;28;19988;-72
2023/08/30 08:38:02;;;;;;;;;;;15.80;99.90;;;;;;5043623;28;19988;-72
2023/08/30 08:40:29;;;;;;;;;;;15.90;99.90;;;;;;5043783;28;19975;-71
2023/08/30 08:42:56;;;;;;;;;;;15.90;99.90;;;;;;5044048;28;19921;-72
2023/08/30 08:45:24;;;;;;;;;;;15.90;99.90;;;;;;5043935;28;19967;-72
2023/08/30 08:47:52;;;;;;;;;;;16.00;99.90;;;;;;5044058;28;20095;-72
2023/08/30 08:50:19;;;;;;;;;;;16.00;99.90;;;;;;5044104;28;19927;-72
2023/08/30 08:52:46;;;;;;;;;;;16.10;99.90;;;;;;5044154;28;20342;-72
2023/08/30 08:55:13;;;;;;;;;;;16.10;99.90;;;;;;5044201;28;19925;-72
2023/08/30 08:57:40;;;;;;;;;;;16.20;99.90;;;;;;5043599;28;19921;-72
2023/08/30 09:00:07;;;;;;;;;;;16.30;99.90;;;;;;5043707;28;19983;-71
2023/08/30 09:02:34;;;;;;;;;;;16.30;99.90;;;;;;5043922;28;19967;-72
2023/08/30 09:05:05;;;;;;;;;;;16.40;99.90;;;;;;5025979;28;19927;-72
2023/08/30 09:07:33;;;;;;;;;;;16.40;99.90;;;;;;5043515;28;19929;-72
2023/08/30 09:10:00;;;;;;;;;;;16.40;99.90;;;;;;5044047;28;19928;-72
2023/08/30 09:12:26;;;;;;;;;;;16.50;99.90;;;;;;5043839;28;19957;-72
2023/08/30 09:14:57;;;;;;;;;;;16.50;99.90;;;;;;5043975;28;19921;-72
2023/08/30 09:17:23;;;;;;;;;;;16.60;99.90;;;;;;5043646;28;20001;-72
2023/08/30 09:19:50;;;;;;;;;;;16.70;99.90;;;;;;5043555;28;19980;-72
2023/08/30 09:22:18;;;;;;;;;;;16.70;99.90;;;;;;5043708;28;19921;-71
2023/08/30 09:24:45;;;;;;;;;;;16.80;99.90;;;;;;5043839;28;20016;-72
2023/08/30 09:27:11;;;;;;;;;;;16.80;99.90;;;;;;5043784;28;19953;-72
2023/08/30 09:29:38;;;;;;;;;;;16.80;99.90;;;;;;5043004;28;20001;-72
2023/08/30 09:32:05;;;;;;;;;;;16.90;99.90;;;;;;5043526;28;19920;-72
2023/08/30 09:34:32;;;;;;;;;;;17.00;99.90;;;;;;5044771;28;19921;-73
2023/08/30 09:37:00;;;;;;;;;;;17.00;99.90;;;;;;5047178;28;19996;-72
2023/08/30 09:39:28;;;;;;;;;;;17.10;99.90;;;;;;5047415;28;19967;-72
2023/08/30 09:41:56;;;;;;;;;;;17.20;99.90;;;;;;5047788;28;19959;-72
2023/08/30 09:44:24;;;;;;;;;;;17.30;99.90;;;;;;5047919;28;19973;-72
2023/08/30 09:46:51;;;;;;;;;;;17.40;99.90;;;;;;5047360;28;19921;-73
2023/08/30 09:49:19;;;;;;;;;;;17.40;99.90;;;;;;5047204;28;19988;-72
2023/08/30 09:51:47;;;;;;;;;;;17.50;99.90;;;;;;5047664;28;19988;-70
2023/08/30 09:54:15;;;;;;;;;;;17.60;99.90;;;;;;5047742;28;20179;-72
2023/08/30 09:56:44;;;;;;;;;;;17.50;99.90;;;;;;5047628;28;19925;-73
2023/08/30 09:59:12;;;;;;;;;;;17.50;99.90;;;;;;5047079;28;20097;-72
2023/08/30 10:01:38;;;;;;;;;;;17.50;99.90;;;;;;5047268;28;19925;-73
2023/08/30 10:04:05;;;;;;;;;;;17.40;99.90;;;;;;5047346;28;19984;-73
2023/08/30 10:06:33;;;;;;;;;;;17.40;99.90;;;;;;5047117;28;19921;-73
2023/08/30 10:08:59;;;;;;;;;;;17.40;99.90;;;;;;5046799;28;19984;-73
2023/08/30 10:11:27;;;;;;;;;;;17.40;99.90;;;;;;5047282;28;19988;-72
2023/08/30 10:13:55;;;;;;;;;;;17.30;99.90;;;;;;5046859;28;20228;-73
2023/08/30 10:16:23;;;;;;;;;;;17.30;99.90;;;;;;5047005;28;19988;-72
2023/08/30 10:18:51;;;;;;;;;;;17.40;99.90;;;;;;5046886;28;19983;-72
2023/08/30 10:21:19;;;;;;;;;;;17.50;99.90;;;;;;5046444;28;20185;-72
2023/08/30 10:23:47;;;;;;;;;;;17.70;99.90;;;;;;5047037;28;20045;-73
2023/08/30 10:26:14;;;;;;;;;;;17.80;99.90;;;;;;5046606;28;19928;-72
2023/08/30 10:28:41;;;;;;;;;;;17.90;99.90;;;;;;5046470;28;19956;-73
2023/08/30 10:31:09;;;;;;;;;;;18.00;99.90;;;;;;5046808;28;19984;-72
2023/08/30 10:33:44;;;;;;;;;;;18.10;99.90;;;;;;5046905;28;19952;-73
2023/08/30 10:36:11;;;;;;;;;;;18.20;99.90;;;;;;5046323;28;19953;-73
2023/08/30 10:38:39;;;;;;;;;;;18.30;99.90;;;;;;5039324;28;19948;-72
2023/08/30 10:41:09;;;;;;;;;;;18.40;99.90;;;;;;5046446;28;19921;-73
2023/08/30 10:43:37;;;;;;;;;;;18.20;99.90;;;;;;5046451;28;19956;-73
2023/08/30 10:46:05;;;;;;;;;;;18.20;99.90;;;;;;5039081;28;19927;-73
2023/08/30 10:48:36;;;;;;;;;;;18.40;99.90;;;;;;5045860;28;20097;-73
2023/08/30 10:51:04;;;;;;;;;;;18.40;99.90;;;;;;5045940;28;19988;-73
2023/08/30 10:53:30;;;;;;;;;;;18.60;99.90;;;;;;5046106;28;19996;-73
2023/08/30 10:56:11;;;;;;;;;;;18.80;99.90;;;;;;5045766;28;19917;-73
2023/08/30 10:58:41;;;;;;;;;;;19.00;99.90;;;;;;5046113;28;19996;-73
2023/08/30 11:01:10;;;;;;;;;;;19.20;99.90;;;;;;5045980;28;20287;-73
2023/08/30 11:03:38;;;;;;;;;;;19.30;99.90;;;;;;5046278;28;19949;-73
2023/08/30 11:06:05;;;;;;;;;;;19.40;99.90;;;;;;5045689;28;20000;-73
2023/08/30 11:08:32;;;;;;;;;;;19.50;99.90;;;;;;5045596;28;19959;-74
2023/08/30 11:11:03;;;;;;;;;;;19.60;99.90;;;;;;5046046;28;20112;-73
2023/08/30 11:13:30;;;;;;;;;;;19.70;99.90;;;;;;5045880;28;19928;-72
2023/08/30 11:16:00;;;;;;;;;;;19.80;99.90;;;;;;5045331;28;19971;-72
2023/08/30 11:18:27;;;;;;;;;;;19.90;99.90;;;;;;5045285;28;19996;-73
2023/08/30 11:20:58;;;;;;;;;;;20.00;99.90;;;;;;5040425;28;19925;-73
2023/08/30 11:23:25;;;;;;;;;;;20.10;99.90;;;;;;5039921;28;19948;-73
2023/08/30 11:25:52;;;;;;;;;;;20.10;99.90;;;;;;5045634;28;20333;-73
2023/08/30 11:28:22;;;;;;;;;;;20.20;99.90;;;;;;5045358;28;20113;-72
2023/08/30 11:30:52;;;;;;;;;;;20.30;99.90;;;;;;5045110;28;19929;-72
2023/08/30 11:33:19;;;;;;;;;;;20.40;99.90;;;;;;5045231;28;20165;-72
2023/08/30 11:35:46;;;;;;;;;;;20.50;99.90;;;;;;5045406;28;19928;-72
2023/08/30 11:38:14;;;;;;;;;;;20.40;99.90;;;;;;5044883;28;19928;-72
2023/08/30 11:40:41;;;;;;;;;;;20.20;99.90;;;;;;5045358;28;19989;-73
2023/08/30 11:43:08;;;;;;;;;;;20.00;99.90;;;;;;5045084;28;19985;-72
2023/08/30 11:45:35;;;;;;;;;;;19.80;99.90;;;;;;5030344;28;19921;-72
2023/08/30 11:48:02;;;;;;;;;;;19.80;99.90;;;;;;5045283;28;19921;-72
2023/08/30 11:50:29;;;;;;;;;;;19.90;99.90;;;;;;5037480;28;19953;-72
2023/08/30 11:52:56;;;;;;;;;;;20.10;99.90;;;;;;5045002;28;19921;-72
2023/08/30 11:55:24;;;;;;;;;;;20.30;99.90;;;;;;5064056;28;19952;-72
2023/08/30 11:57:53;;;;;;;;;;;20.40;99.90;;;;;;5064452;28;19921;-72
2023/08/30 12:00:20;;;;;;;;;;;20.50;99.90;;;;;;5065003;28;19921;-72
2023/08/30 12:02:48;;;;;;;;;;;20.50;99.90;;;;;;5064831;28;19924;-73
2023/08/30 12:05:15;;;;;;;;;;;20.40;99.90;;;;;;5057393;28;19921;-73
2023/08/30 12:07:42;;;;;;;;;;;20.20;99.90;;;;;;5026815;28;20209;-73
2023/08/30 12:10:09;;;;;;;;;;;20.10;99.90;;;;;;5044692;28;19989;-73
2023/08/30 12:12:37;;;;;;;;;;;20.10;99.90;;;;;;5044628;28;19928;-73
2023/08/30 12:15:08;;;;;;;;;;;20.00;99.90;;;;;;5044882;28;19957;-73
2023/08/30 12:17:36;;;;;;;;;;;20.10;99.90;;;;;;5044604;28;19960;-73
2023/08/30 12:20:04;;;;;;;;;;;20.10;99.90;;;;;;5044437;28;19924;-73
2023/08/30 12:22:38;;;;;;;;;;;20.20;99.90;;;;;;5044765;28;20112;-73
2023/08/30 12:25:04;;;;;;;;;;;20.30;99.90;;;;;;5044381;28;19921;-73
2023/08/30 12:27:31;;;;;;;;;;;20.40;99.90;;;;;;5044125;28;20009;-73
2023/08/30 12:29:59;;;;;;;;;;;20.60;99.90;;;;;;5044594;28;19921;-72
2023/08/30 12:32:28;;;;;;;;;;;20.80;99.90;;;;;;5037863;28;19992;-72
2023/08/30 12:34:54;;;;;;;;;;;20.90;99.90;;;;;;5044085;28;19954;-73
2023/08/30 12:37:24;;;;;;;;;;;21.00;99.90;;;;;;5044215;28;19921;-73
2023/08/30 12:39:50;;;;;;;;;;;21.10;99.90;;;;;;5044133;28;19996;-73
2023/08/30 12:42:17;;;;;;;;;;;21.10;99.90;;;;;;5044319;28;20239;-73
2023/08/30 12:44:44;;;;;;;;;;;21.00;99.90;;;;;;5044100;28;20000;-73
2023/08/30 12:47:13;;;;;;;;;;;20.80;99.90;;;;;;5043996;28;20284;-74
2023/08/30 12:49:40;;;;;;;;;;;20.70;99.90;;;;;;5043537;28;19928;-73
2023/08/30 12:52:07;;;;;;;;;;;20.50;99.90;;;;;;5043931;28;19921;-73
2023/08/30 12:54:47;;;;;;;;;;;20.40;99.90;;;;;;5043864;28;19988;-73
2023/08/30 12:57:21;;;;;;;;;;;20.30;99.90;;;;;;5043090;28;19928;-74
2023/08/30 12:59:47;;;;;;;;;;;20.20;99.90;;;;;;5044121;28;19925;-73
2023/08/30 13:02:15;;;;;;;;;;;20.10;99.90;;;;;;5043883;28;19988;-73
2023/08/30 13:04:55;;;;;;;;;;;20.00;99.90;;;;;;5033275;28;19929;-73
2023/08/30 13:07:22;;;;;;;;;;;19.90;99.90;;;;;;5043574;28;19952;-73
2023/08/30 13:09:48;;;;;;;;;;;19.80;99.90;;;;;;5043340;28;19976;-73
2023/08/30 13:12:15;;;;;;;;;;;19.70;99.90;;;;;;5043780;28;20124;-73
2023/08/30 13:14:42;;;;;;;;;;;19.70;99.90;;;;;;5043643;28;20001;-73
2023/08/30 13:17:08;;;;;;;;;;;19.70;99.90;;;;;;5044110;28;20200;-73
2023/08/30 13:19:36;;;;;;;;;;;19.80;99.90;;;;;;5043355;28;19980;-73
2023/08/30 13:22:03;;;;;;;;;;;20.00;99.90;;;;;;5043730;28;19980;-73
2023/08/30 13:24:32;;;;;;;;;;;20.30;99.90;;;;;;5043831;28;19960;-72
2023/08/30 13:26:58;;;;;;;;;;;20.50;99.90;;;;;;5043496;28;19921;-73
2023/08/30 13:29:25;;;;;;;;;;;20.80;99.90;;;;;;5043087;28;20378;-73
2023/08/30 13:31:52;;;;;;;;;;;21.10;99.90;;;;;;5043585;28;19921;-72
2023/08/30 13:34:19;;;;;;;;;;;21.30;99.90;;;;;;5043135;28;19954;-73
2023/08/30 13:36:47;;;;;;;;;;;21.40;99.90;;;;;;5043351;28;19921;-73
2023/08/30 13:39:14;;;;;;;;;;;21.50;99.90;;;;;;5034459;28;19961;-73
2023/08/30 13:41:41;;;;;;;;;;;21.60;99.90;;;;;;5043123;28;19921;-73
2023/08/30 13:44:07;;;;;;;;;;;21.60;99.90;;;;;;5043215;28;19927;-73
2023/08/30 13:46:34;;;;;;;;;;;21.70;99.90;;;;;;5043196;28;20267;-73
2023/08/30 13:49:01;;;;;;;;;;;21.80;99.90;;;;;;5028967;28;19952;-73
2023/08/30 13:51:27;;;;;;;;;;;21.90;99.90;;;;;;5043341;28;19921;-73
2023/08/30 13:53:56;;;;;;;;;;;21.80;99.90;;;;;;5043265;28;19922;-73
2023/08/30 13:56:24;;;;;;;;;;;21.80;99.90;;;;;;5043098;28;19928;-73
2023/08/30 13:58:50;;;;;;;;;;;21.80;99.90;;;;;;5043254;28;19921;-73
2023/08/30 14:01:17;;;;;;;;;;;21.90;99.90;;;;;;5043551;28;19984;-73
2023/08/30 14:03:44;;;;;;;;;;;21.90;99.90;;;;;;5042967;28;19961;-73
2023/08/30 14:06:11;;;;;;;;;;;21.70;99.90;;;;;;5037974;28;19921;-73
2023/08/30 14:08:37;;;;;;;;;;;21.70;99.90;;;;;;5043033;28;19921;-73
2023/08/30 14:11:05;;;;;;;;;;;21.60;99.90;;;;;;5043471;28;20156;-73
2023/08/30 14:13:32;;;;;;;;;;;21.50;99.90;;;;;;5043326;28;19960;-73
2023/08/30 14:15:59;;;;;;;;;;;21.40;99.90;;;;;;5043186;28;19928;-73
2023/08/30 14:18:25;;;;;;;;;;;21.40;99.90;;;;;;5042667;28;20008;-73
2023/08/30 14:20:56;;;;;;;;;;;21.40;99.90;;;;;;5044061;28;19921;-73
2023/08/30 14:23:22;;;;;;;;;;;21.40;99.90;;;;;;5038404;28;19980;-73
2023/08/30 14:25:55;;;;;;;;;;;21.30;99.90;;;;;;5047045;28;19928;-73
2023/08/30 14:28:24;;;;;;;;;;;21.30;99.90;;;;;;5046519;28;19925;-72
2023/08/30 14:30:50;;;;;;;;;;;21.40;99.90;;;;;;5046623;28;20264;-73
2023/08/30 14:33:17;;;;;;;;;;;21.40;99.90;;;;;;5046779;28;19980;-73
2023/08/30 14:35:44;;;;;;;;;;;21.50;99.90;;;;;;5046604;28;19921;-72